sensor_id;sensor_type;location;lat;lon;timestamp;temperature;humidity
19180;DHT22;9722;48.754;8.868;2023-03-16T00:01:22;-0.60;99.90
19180;DHT22;9722;48.754;8.868;2023-03-16T00:04:42;-0.60;99.90
19180;DHT22;9722;48.754;8.868;2023-03-16T00:08:06;-0.60;99.90
19180;DHT22;9722;48.754;8.868;2023-03-16T00:11:27;-0.70;99.90
19180;DHT22;9722;48.754;8.868;2023-03-16T00:14:48;-0.70;99.90
19180;DHT22;9722;48.754;8.868;2023-03-16T00:18:09;-0.70;99.90
19180;DHT22;9722;48.754;8.868;2023-03-16T00:21:29;-0.70;99.90
19180;DHT22;9722;48.754;8.868;2023-03-16T00:24:51;-0.70;99.90
19180;DHT22;9722;48.754;8.868;2023-03-16T00:28:12;-0.70;99.90
19180;DHT22;9722;48.754;8.868;2023-03-16T00:31:33;-0.70;99.90
19180;DHT22;9722;48.754;8.868;2023-03-16T00:34:53;-0.70;99.90
19180;DHT22;9722;48.754;8.868;2023-03-16T00:38:18;-0.70;99.90
19180;DHT22;9722;48.754;8.868;2023-03-16T00:41:39;-0.70;99.90
19180;DHT22;9722;48.754;8.868;2023-03-16T00:45:00;-0.70;99.90
19180;DHT22;9722;48.754;8.868;2023-03-16T00:48:21;-0.80;99.90
19180;DHT22;9722;48.754;8.868;2023-03-16T00:51:43;-0.90;99.90
19180;DHT22;9722;48.754;8.868;2023-03-16T00:55:05;-0.90;99.90
19180;DHT22;9722;48.754;8.868;2023-03-16T00:58:26;-0.90;99.90
19180;DHT22;9722;48.754;8.868;2023-03-16T01:01:47;-1.00;99.90
19180;DHT22;9722;48.754;8.868;2023-03-16T01:05:08;-1.00;99.90
19180;DHT22;9722;48.754;8.868;2023-03-16T01:08:28;-1.00;99.90
19180;DHT22;9722;48.754;8.868;2023-03-16T01:11:49;-1.00;99.90
19180;DHT22;9722;48.754;8.868;2023-03-16T01:15:13;-1.00;99.90
19180;DHT22;9722;48.754;8.868;2023-03-16T01:18:33;-1.00;99.90
19180;DHT22;9722;48.754;8.868;2023-03-16T01:21:54;-1.00;99.90
19180;DHT22;9722;48.754;8.868;2023-03-16T01:25:15;-1.00;99.90
19180;DHT22;9722;48.754;8.868;2023-03-16T01:28:36;-1.00;99.90
19180;DHT22;9722;48.754;8.868;2023-03-16T01:31:58;-1.10;99.90
19180;DHT22;9722;48.754;8.868;2023-03-16T01:35:18;-1.00;99.90
19180;DHT22;9722;48.754;8.868;2023-03-16T01:38:41;-1.10;99.90
19180;DHT22;9722;48.754;8.868;2023-03-16T01:42:02;-1.10;99.90
19180;DHT22;9722;48.754;8.868;2023-03-16T01:49:33;-1.10;99.90
19180;DHT22;9722;48.754;8.868;2023-03-16T01:52:54;-1.10;99.90
19180;DHT22;9722;48.754;8.868;2023-03-16T01:56:19;-1.10;99.90
19180;DHT22;9722;48.754;8.868;2023-03-16T01:59:56;-1.10;99.90
19180;DHT22;9722;48.754;8.868;2023-03-16T02:03:18;-1.10;99.90
19180;DHT22;9722;48.754;8.868;2023-03-16T02:06:41;-1.20;99.90
19180;DHT22;9722;48.754;8.868;2023-03-16T02:10:02;-1.20;99.90
19180;DHT22;9722;48.754;8.868;2023-03-16T02:13:24;-1.20;99.90
19180;DHT22;9722;48.754;8.868;2023-03-16T02:16:45;-1.20;99.90
19180;DHT22;9722;48.754;8.868;2023-03-16T02:20:26;-1.20;99.90
19180;DHT22;9722;48.754;8.868;2023-03-16T02:23:51;-1.20;99.90
19180;DHT22;9722;48.754;8.868;2023-03-16T02:27:14;-1.20;99.90
19180;DHT22;9722;48.754;8.868;2023-03-16T02:30:38;-1.30;99.90
19180;DHT22;9722;48.754;8.868;2023-03-16T02:33:59;-1.30;99.90
19180;DHT22;9722;48.754;8.868;2023-03-16T02:37:21;-1.30;99.90
19180;DHT22;9722;48.754;8.868;2023-03-16T02:40:41;-1.30;99.90
19180;DHT22;9722;48.754;8.868;2023-03-16T02:44:10;-1.30;99.90
19180;DHT22;9722;48.754;8.868;2023-03-16T02:47:42;-1.40;99.90
19180;DHT22;9722;48.754;8.868;2023-03-16T02:51:03;-1.40;99.90
19180;DHT22;9722;48.754;8.868;2023-03-16T02:54:23;-1.50;99.90
19180;DHT22;9722;48.754;8.868;2023-03-16T02:57:44;-1.50;99.90
19180;DHT22;9722;48.754;8.868;2023-03-16T03:01:04;-1.50;99.90
19180;DHT22;9722;48.754;8.868;2023-03-16T03:04:25;-1.50;99.90
19180;DHT22;9722;48.754;8.868;2023-03-16T03:07:46;-1.40;99.90
19180;DHT22;9722;48.754;8.868;2023-03-16T03:11:07;-1.40;99.90
19180;DHT22;9722;48.754;8.868;2023-03-16T03:14:27;-1.40;99.90
19180;DHT22;9722;48.754;8.868;2023-03-16T03:17:48;-1.30;99.90
19180;DHT22;9722;48.754;8.868;2023-03-16T03:21:09;-1.30;99.90
19180;DHT22;9722;48.754;8.868;2023-03-16T03:24:30;-1.30;99.90
19180;DHT22;9722;48.754;8.868;2023-03-16T03:27:51;-1.30;99.90
19180;DHT22;9722;48.754;8.868;2023-03-16T03:31:15;-1.30;99.90
19180;DHT22;9722;48.754;8.868;2023-03-16T03:34:36;-1.30;99.90
19180;DHT22;9722;48.754;8.868;2023-03-16T03:37:57;-1.30;99.90
19180;DHT22;9722;48.754;8.868;2023-03-16T03:41:18;-1.30;99.90
19180;DHT22;9722;48.754;8.868;2023-03-16T03:44:38;-1.40;99.90
19180;DHT22;9722;48.754;8.868;2023-03-16T03:47:58;-1.40;99.90
19180;DHT22;9722;48.754;8.868;2023-03-16T03:51:19;-1.40;99.90
19180;DHT22;9722;48.754;8.868;2023-03-16T03:54:41;-1.40;99.90
19180;DHT22;9722;48.754;8.868;2023-03-16T03:58:01;-1.40;99.90
19180;DHT22;9722;48.754;8.868;2023-03-16T04:01:22;-1.40;99.90
19180;DHT22;9722;48.754;8.868;2023-03-16T04:04:43;-1.40;99.90
19180;DHT22;9722;48.754;8.868;2023-03-16T04:08:03;-1.40;99.90
19180;DHT22;9722;48.754;8.868;2023-03-16T04:11:24;-1.40;99.90
19180;DHT22;9722;48.754;8.868;2023-03-16T04:14:44;-1.50;99.90
19180;DHT22;9722;48.754;8.868;2023-03-16T04:18:05;-1.40;99.90
19180;DHT22;9722;48.754;8.868;2023-03-16T04:21:26;-1.40;99.90
19180;DHT22;9722;48.754;8.868;2023-03-16T04:24:46;-1.40;99.90
19180;DHT22;9722;48.754;8.868;2023-03-16T04:28:07;-1.40;99.90
19180;DHT22;9722;48.754;8.868;2023-03-16T04:31:28;-1.40;99.90
19180;DHT22;9722;48.754;8.868;2023-03-16T04:34:48;-1.40;99.90
19180;DHT22;9722;48.754;8.868;2023-03-16T04:38:08;-1.40;99.90
19180;DHT22;9722;48.754;8.868;2023-03-16T04:41:30;-1.40;99.90
19180;DHT22;9722;48.754;8.868;2023-03-16T04:44:50;-1.40;99.90
19180;DHT22;9722;48.754;8.868;2023-03-16T04:48:11;-1.40;99.90
19180;DHT22;9722;48.754;8.868;2023-03-16T04:51:31;-1.40;99.90
19180;DHT22;9722;48.754;8.868;2023-03-16T04:54:52;-1.40;99.90
19180;DHT22;9722;48.754;8.868;2023-03-16T04:58:12;-1.40;99.90
19180;DHT22;9722;48.754;8.868;2023-03-16T05:01:33;-1.40;99.90
19180;DHT22;9722;48.754;8.868;2023-03-16T05:04:53;-1.40;99.90
19180;DHT22;9722;48.754;8.868;2023-03-16T05:08:14;-1.50;99.90
19180;DHT22;9722;48.754;8.868;2023-03-16T05:11:35;-1.50;99.90
19180;DHT22;9722;48.754;8.868;2023-03-16T05:14:55;-1.50;99.90
19180;DHT22;9722;48.754;8.868;2023-03-16T05:18:16;-1.50;99.90
19180;DHT22;9722;48.754;8.868;2023-03-16T05:21:37;-1.60;99.90
19180;DHT22;9722;48.754;8.868;2023-03-16T05:24:58;-1.60;99.90
19180;DHT22;9722;48.754;8.868;2023-03-16T05:28:22;-1.60;99.90
19180;DHT22;9722;48.754;8.868;2023-03-16T05:31:43;-1.60;99.90
19180;DHT22;9722;48.754;8.868;2023-03-16T05:35:06;-1.60;99.90
19180;DHT22;9722;48.754;8.868;2023-03-16T05:38:26;-1.60;99.90
19180;DHT22;9722;48.754;8.868;2023-03-16T05:41:47;-1.60;99.90
19180;DHT22;9722;48.754;8.868;2023-03-16T05:45:08;-1.60;99.90
19180;DHT22;9722;48.754;8.868;2023-03-16T05:48:29;-1.60;99.90
19180;DHT22;9722;48.754;8.868;2023-03-16T05:51:49;-1.70;99.90
19180;DHT22;9722;48.754;8.868;2023-03-16T05:55:11;-1.60;99.90
19180;DHT22;9722;48.754;8.868;2023-03-16T05:58:33;-1.60;99.90
19180;DHT22;9722;48.754;8.868;2023-03-16T06:01:54;-1.60;99.90
19180;DHT22;9722;48.754;8.868;2023-03-16T06:05:16;-1.60;99.90
19180;DHT22;9722;48.754;8.868;2023-03-16T06:08:37;-1.60;99.90
19180;DHT22;9722;48.754;8.868;2023-03-16T06:11:57;-1.60;99.90
19180;DHT22;9722;48.754;8.868;2023-03-16T06:15:18;-1.50;99.90
19180;DHT22;9722;48.754;8.868;2023-03-16T06:18:39;-1.40;99.90
19180;DHT22;9722;48.754;8.868;2023-03-16T06:22:00;-1.40;99.90
19180;DHT22;9722;48.754;8.868;2023-03-16T06:25:20;-1.30;99.90
19180;DHT22;9722;48.754;8.868;2023-03-16T06:28:41;-1.20;99.90
19180;DHT22;9722;48.754;8.868;2023-03-16T06:32:02;-1.20;99.90
19180;DHT22;9722;48.754;8.868;2023-03-16T06:35:22;-1.00;99.90
19180;DHT22;9722;48.754;8.868;2023-03-16T06:38:43;-0.90;99.90
19180;DHT22;9722;48.754;8.868;2023-03-16T06:42:03;-0.30;99.90
19180;DHT22;9722;48.754;8.868;2023-03-16T06:45:24;0.30;99.90
19180;DHT22;9722;48.754;8.868;2023-03-16T06:48:45;0.80;99.90
19180;DHT22;9722;48.754;8.868;2023-03-16T06:52:06;1.40;99.90
19180;DHT22;9722;48.754;8.868;2023-03-16T06:55:27;1.80;99.90
19180;DHT22;9722;48.754;8.868;2023-03-16T06:58:48;2.30;99.90
19180;DHT22;9722;48.754;8.868;2023-03-16T07:02:12;2.80;99.90
19180;DHT22;9722;48.754;8.868;2023-03-16T07:05:33;3.30;99.10
19180;DHT22;9722;48.754;8.868;2023-03-16T07:08:54;3.80;97.90
19180;DHT22;9722;48.754;8.868;2023-03-16T07:12:14;4.30;96.60
19180;DHT22;9722;48.754;8.868;2023-03-16T07:15:35;4.90;95.60
19180;DHT22;9722;48.754;8.868;2023-03-16T07:18:55;5.50;94.20
19180;DHT22;9722;48.754;8.868;2023-03-16T07:22:16;6.00;93.40
19180;DHT22;9722;48.754;8.868;2023-03-16T07:25:36;6.40;91.50
19180;DHT22;9722;48.754;8.868;2023-03-16T07:28:58;6.80;89.40
19180;DHT22;9722;48.754;8.868;2023-03-16T07:32:18;7.20;86.60
19180;DHT22;9722;48.754;8.868;2023-03-16T07:35:39;7.70;85.00
19180;DHT22;9722;48.754;8.868;2023-03-16T07:39:00;8.30;82.50
19180;DHT22;9722;48.754;8.868;2023-03-16T07:42:21;9.00;79.60
19180;DHT22;9722;48.754;8.868;2023-03-16T07:45:46;9.50;78.30
19180;DHT22;9722;48.754;8.868;2023-03-16T07:49:06;10.20;74.50
19180;DHT22;9722;48.754;8.868;2023-03-16T07:52:28;10.90;71.90
19180;DHT22;9722;48.754;8.868;2023-03-16T07:55:49;11.50;68.70
19180;DHT22;9722;48.754;8.868;2023-03-16T07:59:10;11.80;65.60
19180;DHT22;9722;48.754;8.868;2023-03-16T08:02:31;12.20;64.20
19180;DHT22;9722;48.754;8.868;2023-03-16T08:05:52;12.60;62.90
19180;DHT22;9722;48.754;8.868;2023-03-16T08:09:13;13.10;61.40
19180;DHT22;9722;48.754;8.868;2023-03-16T08:12:33;13.50;59.40
19180;DHT22;9722;48.754;8.868;2023-03-16T08:15:54;13.90;58.50
19180;DHT22;9722;48.754;8.868;2023-03-16T08:19:17;14.30;57.30
19180;DHT22;9722;48.754;8.868;2023-03-16T08:22:43;14.70;56.30
19180;DHT22;9722;48.754;8.868;2023-03-16T08:26:05;15.00;54.80
19180;DHT22;9722;48.754;8.868;2023-03-16T08:29:28;15.20;53.40
19180;DHT22;9722;48.754;8.868;2023-03-16T08:32:48;15.20;52.30
19180;DHT22;9722;48.754;8.868;2023-03-16T08:36:11;15.00;52.10
19180;DHT22;9722;48.754;8.868;2023-03-16T08:39:32;15.10;51.90
19180;DHT22;9722;48.754;8.868;2023-03-16T08:42:54;15.30;51.70
19180;DHT22;9722;48.754;8.868;2023-03-16T08:46:15;15.50;50.50
19180;DHT22;9722;48.754;8.868;2023-03-16T08:49:36;15.50;51.00
19180;DHT22;9722;48.754;8.868;2023-03-16T08:52:56;15.70;49.50
19180;DHT22;9722;48.754;8.868;2023-03-16T08:56:17;15.60;48.90
19180;DHT22;9722;48.754;8.868;2023-03-16T08:59:37;15.70;48.60
19180;DHT22;9722;48.754;8.868;2023-03-16T09:02:58;16.00;48.20
19180;DHT22;9722;48.754;8.868;2023-03-16T09:06:20;16.30;47.40
19180;DHT22;9722;48.754;8.868;2023-03-16T09:09:41;16.50;46.80
19180;DHT22;9722;48.754;8.868;2023-03-16T09:13:03;16.70;46.40
19180;DHT22;9722;48.754;8.868;2023-03-16T09:16:24;17.00;45.70
19180;DHT22;9722;48.754;8.868;2023-03-16T09:19:45;17.30;45.20
19180;DHT22;9722;48.754;8.868;2023-03-16T09:23:06;17.40;44.90
19180;DHT22;9722;48.754;8.868;2023-03-16T09:26:26;17.50;44.20
19180;DHT22;9722;48.754;8.868;2023-03-16T09:29:47;17.60;43.90
19180;DHT22;9722;48.754;8.868;2023-03-16T09:33:12;17.70;44.20
19180;DHT22;9722;48.754;8.868;2023-03-16T09:36:32;17.70;43.10
19180;DHT22;9722;48.754;8.868;2023-03-16T09:39:53;17.40;43.20
19180;DHT22;9722;48.754;8.868;2023-03-16T09:46:49;16.60;43.80
19180;DHT22;9722;48.754;8.868;2023-03-16T09:50:15;16.50;43.40
19180;DHT22;9722;48.754;8.868;2023-03-16T09:53:39;16.60;43.50
19180;DHT22;9722;48.754;8.868;2023-03-16T09:57:02;16.90;43.10
19180;DHT22;9722;48.754;8.868;2023-03-16T10:00:26;17.10;42.70
19180;DHT22;9722;48.754;8.868;2023-03-16T10:11:40;18.30;41.60
19180;DHT22;9722;48.754;8.868;2023-03-16T10:18:30;18.20;41.20
19180;DHT22;9722;48.754;8.868;2023-03-16T10:21:55;18.20;40.40
19180;DHT22;9722;48.754;8.868;2023-03-16T10:25:22;18.50;40.10
19180;DHT22;9722;48.754;8.868;2023-03-16T10:28:44;19.10;39.20
19180;DHT22;9722;48.754;8.868;2023-03-16T10:32:14;19.70;39.10
19180;DHT22;9722;48.754;8.868;2023-03-16T10:39:36;20.70;37.10
19180;DHT22;9722;48.754;8.868;2023-03-16T10:43:06;21.40;36.50
19180;DHT22;9722;48.754;8.868;2023-03-16T10:50:31;22.00;34.80
19180;DHT22;9722;48.754;8.868;2023-03-16T10:53:52;22.40;34.90
19180;DHT22;9722;48.754;8.868;2023-03-16T11:00:42;22.70;33.20
19180;DHT22;9722;48.754;8.868;2023-03-16T11:04:13;22.90;32.90
19180;DHT22;9722;48.754;8.868;2023-03-16T11:07:35;23.10;33.00
19180;DHT22;9722;48.754;8.868;2023-03-16T11:10:57;23.70;32.60
19180;DHT22;9722;48.754;8.868;2023-03-16T11:14:21;24.00;30.90
19180;DHT22;9722;48.754;8.868;2023-03-16T11:17:46;24.00;30.60
19180;DHT22;9722;48.754;8.868;2023-03-16T11:21:15;24.20;30.00
19180;DHT22;9722;48.754;8.868;2023-03-16T11:31:41;24.70;29.50
19180;DHT22;9722;48.754;8.868;2023-03-16T11:39:06;24.10;29.60
19180;DHT22;9722;48.754;8.868;2023-03-16T11:42:37;24.80;29.80
19180;DHT22;9722;48.754;8.868;2023-03-16T11:49:51;26.30;28.10
19180;DHT22;9722;48.754;8.868;2023-03-16T11:57:29;25.80;27.40
19180;DHT22;9722;48.754;8.868;2023-03-16T12:01:15;24.90;27.80
19180;DHT22;9722;48.754;8.868;2023-03-16T12:05:07;24.30;28.30
19180;DHT22;9722;48.754;8.868;2023-03-16T12:13:18;24.90;28.80
19180;DHT22;9722;48.754;8.868;2023-03-16T12:16:48;25.10;28.90
19180;DHT22;9722;48.754;8.868;2023-03-16T12:23:37;24.50;27.90
19180;DHT22;9722;48.754;8.868;2023-03-16T12:26:59;24.00;28.20
19180;DHT22;9722;48.754;8.868;2023-03-16T12:30:44;23.70;28.20
19180;DHT22;9722;48.754;8.868;2023-03-16T12:34:26;23.40;28.50
19180;DHT22;9722;48.754;8.868;2023-03-16T12:38:04;23.10;28.80
19180;DHT22;9722;48.754;8.868;2023-03-16T12:45:58;24.20;29.20
19180;DHT22;9722;48.754;8.868;2023-03-16T12:49:01;25.70;28.30
19180;DHT22;9722;48.754;8.868;2023-03-16T12:52:24;26.20;27.80
19180;DHT22;9722;48.754;8.868;2023-03-16T12:55:44;26.30;27.70
19180;DHT22;9722;48.754;8.868;2023-03-16T12:59:05;25.60;27.50
19180;DHT22;9722;48.754;8.868;2023-03-16T13:02:31;24.70;28.00
19180;DHT22;9722;48.754;8.868;2023-03-16T13:05:58;23.70;28.20
19180;DHT22;9722;48.754;8.868;2023-03-16T13:09:24;23.00;28.70
19180;DHT22;9722;48.754;8.868;2023-03-16T13:12:47;23.00;29.00
19180;DHT22;9722;48.754;8.868;2023-03-16T13:16:09;23.70;28.70
19180;DHT22;9722;48.754;8.868;2023-03-16T13:23:21;25.20;28.10
19180;DHT22;9722;48.754;8.868;2023-03-16T13:26:57;26.10;27.70
19180;DHT22;9722;48.754;8.868;2023-03-16T13:30:21;27.10;27.40
19180;DHT22;9722;48.754;8.868;2023-03-16T13:33:42;28.30;27.10
19180;DHT22;9722;48.754;8.868;2023-03-16T13:37:03;29.00;26.20
19180;DHT22;9722;48.754;8.868;2023-03-16T13:40:31;29.60;26.40
19180;DHT22;9722;48.754;8.868;2023-03-16T13:43:52;29.90;25.50
19180;DHT22;9722;48.754;8.868;2023-03-16T13:47:16;29.90;25.80
19180;DHT22;9722;48.754;8.868;2023-03-16T13:50:37;30.00;25.10
19180;DHT22;9722;48.754;8.868;2023-03-16T13:54:20;29.50;24.80
19180;DHT22;9722;48.754;8.868;2023-03-16T13:57:44;29.10;25.00
19180;DHT22;9722;48.754;8.868;2023-03-16T14:01:23;29.20;25.20
19180;DHT22;9722;48.754;8.868;2023-03-16T14:04:45;28.90;25.00
19180;DHT22;9722;48.754;8.868;2023-03-16T14:08:17;27.80;25.40
19180;DHT22;9722;48.754;8.868;2023-03-16T14:11:38;26.30;25.80
19180;DHT22;9722;48.754;8.868;2023-03-16T14:14:59;25.40;26.80
19180;DHT22;9722;48.754;8.868;2023-03-16T14:18:31;25.00;27.20
19180;DHT22;9722;48.754;8.868;2023-03-16T14:21:51;24.50;27.50
19180;DHT22;9722;48.754;8.868;2023-03-16T14:25:19;24.20;27.90
19180;DHT22;9722;48.754;8.868;2023-03-16T14:28:54;24.00;27.90
19180;DHT22;9722;48.754;8.868;2023-03-16T14:32:24;23.70;28.10
19180;DHT22;9722;48.754;8.868;2023-03-16T14:35:53;23.70;27.90
19180;DHT22;9722;48.754;8.868;2023-03-16T14:39:18;23.30;28.00
19180;DHT22;9722;48.754;8.868;2023-03-16T14:42:39;22.90;28.50
19180;DHT22;9722;48.754;8.868;2023-03-16T14:46:02;22.40;28.50
19180;DHT22;9722;48.754;8.868;2023-03-16T14:49:33;22.10;28.80
19180;DHT22;9722;48.754;8.868;2023-03-16T14:52:54;21.60;28.90
19180;DHT22;9722;48.754;8.868;2023-03-16T14:56:16;20.80;29.20
19180;DHT22;9722;48.754;8.868;2023-03-16T14:59:37;20.10;29.80
19180;DHT22;9722;48.754;8.868;2023-03-16T15:03:10;19.30;30.40
19180;DHT22;9722;48.754;8.868;2023-03-16T15:06:32;18.60;30.90
19180;DHT22;9722;48.754;8.868;2023-03-16T15:10:28;18.10;31.90
19180;DHT22;9722;48.754;8.868;2023-03-16T15:13:41;17.60;32.50
19180;DHT22;9722;48.754;8.868;2023-03-16T15:17:12;17.20;33.00
19180;DHT22;9722;48.754;8.868;2023-03-16T15:20:38;16.80;33.40
19180;DHT22;9722;48.754;8.868;2023-03-16T15:23:59;16.50;33.40
19180;DHT22;9722;48.754;8.868;2023-03-16T15:27:23;16.30;34.10
19180;DHT22;9722;48.754;8.868;2023-03-16T15:30:53;16.00;34.50
19180;DHT22;9722;48.754;8.868;2023-03-16T15:34:13;15.70;34.80
19180;DHT22;9722;48.754;8.868;2023-03-16T15:37:35;15.50;35.40
19180;DHT22;9722;48.754;8.868;2023-03-16T15:40:57;15.20;35.60
19180;DHT22;9722;48.754;8.868;2023-03-16T15:44:17;15.00;36.00
19180;DHT22;9722;48.754;8.868;2023-03-16T15:47:38;14.80;36.40
19180;DHT22;9722;48.754;8.868;2023-03-16T15:51:03;14.60;36.80
19180;DHT22;9722;48.754;8.868;2023-03-16T15:54:26;14.40;36.70
19180;DHT22;9722;48.754;8.868;2023-03-16T15:57:48;14.30;37.00
19180;DHT22;9722;48.754;8.868;2023-03-16T16:01:22;14.10;37.20
19180;DHT22;9722;48.754;8.868;2023-03-16T16:04:43;14.00;37.60
19180;DHT22;9722;48.754;8.868;2023-03-16T16:08:04;13.80;37.80
19180;DHT22;9722;48.754;8.868;2023-03-16T16:11:26;13.70;38.00
19180;DHT22;9722;48.754;8.868;2023-03-16T16:14:47;13.60;38.30
19180;DHT22;9722;48.754;8.868;2023-03-16T16:18:37;13.40;38.50
19180;DHT22;9722;48.754;8.868;2023-03-16T16:21:58;13.30;38.90
19180;DHT22;9722;48.754;8.868;2023-03-16T16:25:22;13.20;39.30
19180;DHT22;9722;48.754;8.868;2023-03-16T16:28:44;13.10;39.90
19180;DHT22;9722;48.754;8.868;2023-03-16T16:32:21;13.00;40.50
19180;DHT22;9722;48.754;8.868;2023-03-16T16:35:42;12.80;40.40
19180;DHT22;9722;48.754;8.868;2023-03-16T16:39:04;12.70;40.70
19180;DHT22;9722;48.754;8.868;2023-03-16T16:42:25;12.60;41.20
19180;DHT22;9722;48.754;8.868;2023-03-16T16:45:47;12.50;41.60
19180;DHT22;9722;48.754;8.868;2023-03-16T16:49:21;12.40;42.10
19180;DHT22;9722;48.754;8.868;2023-03-16T16:52:43;12.30;42.60
19180;DHT22;9722;48.754;8.868;2023-03-16T16:56:05;12.20;42.90
19180;DHT22;9722;48.754;8.868;2023-03-16T16:59:33;12.00;43.30
19180;DHT22;9722;48.754;8.868;2023-03-16T17:02:56;11.90;43.60
19180;DHT22;9722;48.754;8.868;2023-03-16T17:06:19;11.80;43.90
19180;DHT22;9722;48.754;8.868;2023-03-16T17:09:39;11.70;45.00
19180;DHT22;9722;48.754;8.868;2023-03-16T17:13:00;11.60;44.70
19180;DHT22;9722;48.754;8.868;2023-03-16T17:16:21;11.50;45.20
19180;DHT22;9722;48.754;8.868;2023-03-16T17:19:47;11.40;45.60
19180;DHT22;9722;48.754;8.868;2023-03-16T17:23:33;11.20;45.80
19180;DHT22;9722;48.754;8.868;2023-03-16T17:26:56;11.10;46.50
19180;DHT22;9722;48.754;8.868;2023-03-16T17:30:25;10.90;46.60
19180;DHT22;9722;48.754;8.868;2023-03-16T17:33:46;10.80;46.90
19180;DHT22;9722;48.754;8.868;2023-03-16T17:37:12;10.70;47.30
19180;DHT22;9722;48.754;8.868;2023-03-16T17:40:34;10.60;47.80
19180;DHT22;9722;48.754;8.868;2023-03-16T17:43:56;10.50;48.00
19180;DHT22;9722;48.754;8.868;2023-03-16T17:47:22;10.40;48.10
19180;DHT22;9722;48.754;8.868;2023-03-16T17:50:43;10.30;48.50
19180;DHT22;9722;48.754;8.868;2023-03-16T17:54:07;10.20;48.90
19180;DHT22;9722;48.754;8.868;2023-03-16T17:57:30;10.10;49.20
19180;DHT22;9722;48.754;8.868;2023-03-16T18:00:53;10.00;49.50
19180;DHT22;9722;48.754;8.868;2023-03-16T18:04:18;9.90;50.70
19180;DHT22;9722;48.754;8.868;2023-03-16T18:07:39;9.80;51.10
19180;DHT22;9722;48.754;8.868;2023-03-16T18:11:03;9.60;51.50
19180;DHT22;9722;48.754;8.868;2023-03-16T18:14:33;9.50;52.50
19180;DHT22;9722;48.754;8.868;2023-03-16T18:17:55;9.30;53.20
19180;DHT22;9722;48.754;8.868;2023-03-16T18:21:21;9.20;53.60
19180;DHT22;9722;48.754;8.868;2023-03-16T18:24:44;9.00;54.10
19180;DHT22;9722;48.754;8.868;2023-03-16T18:28:06;8.90;54.60
19180;DHT22;9722;48.754;8.868;2023-03-16T18:31:27;8.80;54.80
19180;DHT22;9722;48.754;8.868;2023-03-16T18:34:48;8.70;55.20
19180;DHT22;9722;48.754;8.868;2023-03-16T18:38:16;8.60;55.50
19180;DHT22;9722;48.754;8.868;2023-03-16T18:41:38;8.50;55.80
19180;DHT22;9722;48.754;8.868;2023-03-16T18:44:59;8.40;55.90
19180;DHT22;9722;48.754;8.868;2023-03-16T18:48:31;8.40;56.20
19180;DHT22;9722;48.754;8.868;2023-03-16T18:51:53;8.40;56.70
19180;DHT22;9722;48.754;8.868;2023-03-16T18:55:16;8.40;56.70
19180;DHT22;9722;48.754;8.868;2023-03-16T18:58:37;8.40;57.40
19180;DHT22;9722;48.754;8.868;2023-03-16T19:01:58;8.30;57.60
19180;DHT22;9722;48.754;8.868;2023-03-16T19:05:23;8.30;57.90
19180;DHT22;9722;48.754;8.868;2023-03-16T19:08:46;8.30;58.10
19180;DHT22;9722;48.754;8.868;2023-03-16T19:12:08;8.20;58.40
19180;DHT22;9722;48.754;8.868;2023-03-16T19:15:35;8.20;58.90
19180;DHT22;9722;48.754;8.868;2023-03-16T19:18:55;8.20;59.00
19180;DHT22;9722;48.754;8.868;2023-03-16T19:22:17;8.10;59.30
19180;DHT22;9722;48.754;8.868;2023-03-16T19:25:40;8.10;59.50
19180;DHT22;9722;48.754;8.868;2023-03-16T19:29:02;8.00;59.90
19180;DHT22;9722;48.754;8.868;2023-03-16T19:32:23;7.90;60.20
19180;DHT22;9722;48.754;8.868;2023-03-16T19:35:44;7.80;60.50
19180;DHT22;9722;48.754;8.868;2023-03-16T19:39:05;7.70;61.00
19180;DHT22;9722;48.754;8.868;2023-03-16T19:42:30;7.60;61.20
19180;DHT22;9722;48.754;8.868;2023-03-16T19:45:55;7.60;61.60
19180;DHT22;9722;48.754;8.868;2023-03-16T19:49:20;7.50;62.00
19180;DHT22;9722;48.754;8.868;2023-03-16T19:52:42;7.40;62.20
19180;DHT22;9722;48.754;8.868;2023-03-16T19:56:02;7.30;62.50
19180;DHT22;9722;48.754;8.868;2023-03-16T19:59:25;7.20;62.80
19180;DHT22;9722;48.754;8.868;2023-03-16T20:02:48;7.10;63.40
19180;DHT22;9722;48.754;8.868;2023-03-16T20:06:16;7.00;63.80
19180;DHT22;9722;48.754;8.868;2023-03-16T20:09:37;6.90;64.10
19180;DHT22;9722;48.754;8.868;2023-03-16T20:12:59;6.90;64.30
19180;DHT22;9722;48.754;8.868;2023-03-16T20:16:27;6.80;64.60
19180;DHT22;9722;48.754;8.868;2023-03-16T20:19:50;6.70;65.20
19180;DHT22;9722;48.754;8.868;2023-03-16T20:23:17;6.60;65.40
19180;DHT22;9722;48.754;8.868;2023-03-16T20:26:38;6.60;65.90
19180;DHT22;9722;48.754;8.868;2023-03-16T20:29:58;6.50;65.90
19180;DHT22;9722;48.754;8.868;2023-03-16T20:33:21;6.40;66.40
19180;DHT22;9722;48.754;8.868;2023-03-16T20:36:42;6.30;66.90
19180;DHT22;9722;48.754;8.868;2023-03-16T20:40:02;6.20;67.40
19180;DHT22;9722;48.754;8.868;2023-03-16T20:43:26;6.10;67.90
19180;DHT22;9722;48.754;8.868;2023-03-16T20:46:48;6.00;68.30
19180;DHT22;9722;48.754;8.868;2023-03-16T20:50:26;5.90;68.50
19180;DHT22;9722;48.754;8.868;2023-03-16T20:53:48;5.80;69.10
19180;DHT22;9722;48.754;8.868;2023-03-16T20:57:21;5.80;69.30
19180;DHT22;9722;48.754;8.868;2023-03-16T21:00:42;5.60;69.90
19180;DHT22;9722;48.754;8.868;2023-03-16T21:04:03;5.50;70.10
19180;DHT22;9722;48.754;8.868;2023-03-16T21:07:25;5.50;70.60
19180;DHT22;9722;48.754;8.868;2023-03-16T21:10:49;5.40;70.70
19180;DHT22;9722;48.754;8.868;2023-03-16T21:14:16;5.40;71.30
19180;DHT22;9722;48.754;8.868;2023-03-16T21:17:37;5.30;71.50
19180;DHT22;9722;48.754;8.868;2023-03-16T21:20:58;5.30;71.80
19180;DHT22;9722;48.754;8.868;2023-03-16T21:24:18;5.20;71.80
19180;DHT22;9722;48.754;8.868;2023-03-16T21:27:39;5.20;72.10
19180;DHT22;9722;48.754;8.868;2023-03-16T21:31:00;5.20;72.30
19180;DHT22;9722;48.754;8.868;2023-03-16T21:34:24;5.20;72.50
19180;DHT22;9722;48.754;8.868;2023-03-16T21:37:45;5.20;72.90
19180;DHT22;9722;48.754;8.868;2023-03-16T21:41:06;5.20;73.30
19180;DHT22;9722;48.754;8.868;2023-03-16T21:44:27;5.20;73.50
19180;DHT22;9722;48.754;8.868;2023-03-16T21:47:47;5.20;73.60
19180;DHT22;9722;48.754;8.868;2023-03-16T21:51:13;5.20;73.90
19180;DHT22;9722;48.754;8.868;2023-03-16T21:54:34;5.10;74.10
19180;DHT22;9722;48.754;8.868;2023-03-16T21:57:56;5.10;74.40
19180;DHT22;9722;48.754;8.868;2023-03-16T22:04:41;5.00;74.90
19180;DHT22;9722;48.754;8.868;2023-03-16T22:08:20;5.00;75.20
19180;DHT22;9722;48.754;8.868;2023-03-16T22:11:41;5.00;75.50
19180;DHT22;9722;48.754;8.868;2023-03-16T22:15:02;4.90;75.80
19180;DHT22;9722;48.754;8.868;2023-03-16T22:18:35;4.90;76.10
19180;DHT22;9722;48.754;8.868;2023-03-16T22:21:56;4.90;76.10
19180;DHT22;9722;48.754;8.868;2023-03-16T22:25:23;4.90;76.60
19180;DHT22;9722;48.754;8.868;2023-03-16T22:28:44;4.80;77.00
19180;DHT22;9722;48.754;8.868;2023-03-16T22:32:07;4.80;77.30
19180;DHT22;9722;48.754;8.868;2023-03-16T22:35:39;4.80;77.60
19180;DHT22;9722;48.754;8.868;2023-03-16T22:39:03;4.70;77.50
19180;DHT22;9722;48.754;8.868;2023-03-16T22:42:27;4.70;77.70
19180;DHT22;9722;48.754;8.868;2023-03-16T22:45:51;4.70;77.80
19180;DHT22;9722;48.754;8.868;2023-03-16T22:49:20;4.70;78.20
19180;DHT22;9722;48.754;8.868;2023-03-16T22:52:43;4.70;78.40
19180;DHT22;9722;48.754;8.868;2023-03-16T22:56:06;4.70;78.80
19180;DHT22;9722;48.754;8.868;2023-03-16T22:59:30;4.60;79.10